sensor_id;sensor_type;location;lat;lon;timestamp;P1;durP1;ratioP1;P2;durP2;ratioP2
53519;SDS011;39397;53.204;5.778;2023-02-28T00:00:03;9.30;;;2.58;;
53519;SDS011;39397;53.204;5.778;2023-02-28T00:02:41;9.80;;;2.05;;
53519;SDS011;39397;53.204;5.778;2023-02-28T00:05:08;7.85;;;2.03;;
53519;SDS011;39397;53.204;5.778;2023-02-28T00:07:36;10.77;;;2.25;;
53519;SDS011;39397;53.204;5.778;2023-02-28T00:10:02;7.72;;;2.17;;
53519;SDS011;39397;53.204;5.778;2023-02-28T00:12:31;7.20;;;2.25;;
53519;SDS011;39397;53.204;5.778;2023-02-28T00:14:57;12.60;;;2.30;;
53519;SDS011;39397;53.204;5.778;2023-02-28T00:17:23;9.00;;;2.08;;
53519;SDS011;39397;53.204;5.778;2023-02-28T00:19:49;9.60;;;1.90;;
53519;SDS011;39397;53.204;5.778;2023-02-28T00:22:15;16.67;;;2.53;;
53519;SDS011;39397;53.204;5.778;2023-02-28T00:24:43;8.27;;;2.10;;
53519;SDS011;39397;53.204;5.778;2023-02-28T00:27:09;9.75;;;2.38;;
53519;SDS011;39397;53.204;5.778;2023-02-28T00:29:35;10.43;;;2.58;;
53519;SDS011;39397;53.204;5.778;2023-02-28T00:32:01;11.23;;;2.42;;
53519;SDS011;39397;53.204;5.778;2023-02-28T00:34:27;9.98;;;2.50;;
53519;SDS011;39397;53.204;5.778;2023-02-28T00:36:52;8.23;;;2.15;;
53519;SDS011;39397;53.204;5.778;2023-02-28T00:39:18;11.55;;;2.63;;
53519;SDS011;39397;53.204;5.778;2023-02-28T00:41:44;10.23;;;2.65;;
53519;SDS011;39397;53.204;5.778;2023-02-28T00:44:10;10.95;;;2.70;;
53519;SDS011;39397;53.204;5.778;2023-02-28T00:46:36;10.40;;;2.75;;
53519;SDS011;39397;53.204;5.778;2023-02-28T00:49:02;10.07;;;2.45;;
53519;SDS011;39397;53.204;5.778;2023-02-28T00:51:27;10.13;;;2.42;;
53519;SDS011;39397;53.204;5.778;2023-02-28T00:53:53;9.45;;;2.20;;
53519;SDS011;39397;53.204;5.778;2023-02-28T00:56:19;9.30;;;2.20;;
53519;SDS011;39397;53.204;5.778;2023-02-28T00:58:45;7.25;;;2.50;;
53519;SDS011;39397;53.204;5.778;2023-02-28T01:01:11;10.95;;;2.42;;
53519;SDS011;39397;53.204;5.778;2023-02-28T01:03:37;8.48;;;2.50;;
53519;SDS011;39397;53.204;5.778;2023-02-28T01:06:03;10.23;;;2.70;;
53519;SDS011;39397;53.204;5.778;2023-02-28T01:08:29;9.60;;;2.33;;
53519;SDS011;39397;53.204;5.778;2023-02-28T01:10:55;7.28;;;1.95;;
53519;SDS011;39397;53.204;5.778;2023-02-28T01:13:21;6.93;;;2.17;;
53519;SDS011;39397;53.204;5.778;2023-02-28T01:15:49;12.13;;;2.67;;
53519;SDS011;39397;53.204;5.778;2023-02-28T01:18:16;9.73;;;2.55;;
53519;SDS011;39397;53.204;5.778;2023-02-28T01:20:42;9.48;;;2.92;;
53519;SDS011;39397;53.204;5.778;2023-02-28T01:23:08;12.85;;;2.60;;
53519;SDS011;39397;53.204;5.778;2023-02-28T01:25:35;13.00;;;2.28;;
53519;SDS011;39397;53.204;5.778;2023-02-28T01:28:01;11.00;;;2.53;;
53519;SDS011;39397;53.204;5.778;2023-02-28T01:30:27;6.03;;;2.17;;
53519;SDS011;39397;53.204;5.778;2023-02-28T01:32:52;11.50;;;2.72;;
53519;SDS011;39397;53.204;5.778;2023-02-28T01:35:18;10.05;;;1.92;;
53519;SDS011;39397;53.204;5.778;2023-02-28T01:37:44;9.45;;;2.05;;
53519;SDS011;39397;53.204;5.778;2023-02-28T01:40:11;6.95;;;2.78;;
53519;SDS011;39397;53.204;5.778;2023-02-28T01:42:37;6.60;;;2.17;;
53519;SDS011;39397;53.204;5.778;2023-02-28T01:47:47;12.88;;;2.35;;
53519;SDS011;39397;53.204;5.778;2023-02-28T01:50:19;7.32;;;2.00;;
53519;SDS011;39397;53.204;5.778;2023-02-28T01:52:49;8.55;;;2.30;;
53519;SDS011;39397;53.204;5.778;2023-02-28T01:55:16;9.43;;;2.40;;
53519;SDS011;39397;53.204;5.778;2023-02-28T01:57:48;9.75;;;2.78;;
53519;SDS011;39397;53.204;5.778;2023-02-28T02:00:18;7.65;;;2.13;;
53519;SDS011;39397;53.204;5.778;2023-02-28T02:02:49;8.82;;;2.17;;
53519;SDS011;39397;53.204;5.778;2023-02-28T02:05:22;11.05;;;2.30;;
53519;SDS011;39397;53.204;5.778;2023-02-28T02:07:54;9.45;;;2.80;;
53519;SDS011;39397;53.204;5.778;2023-02-28T02:16:03;8.48;;;3.00;;
53519;SDS011;39397;53.204;5.778;2023-02-28T02:27:23;13.18;;;3.03;;
53519;SDS011;39397;53.204;5.778;2023-02-28T02:32:47;15.18;;;2.30;;
53519;SDS011;39397;53.204;5.778;2023-02-28T02:35:19;10.38;;;2.08;;
53519;SDS011;39397;53.204;5.778;2023-02-28T02:37:54;11.45;;;2.33;;
53519;SDS011;39397;53.204;5.778;2023-02-28T02:40:29;8.07;;;2.38;;
53519;SDS011;39397;53.204;5.778;2023-02-28T02:45:31;8.45;;;2.60;;
53519;SDS011;39397;53.204;5.778;2023-02-28T02:48:05;8.07;;;2.08;;
53519;SDS011;39397;53.204;5.778;2023-02-28T02:50:38;8.50;;;2.25;;
53519;SDS011;39397;53.204;5.778;2023-02-28T02:53:08;10.85;;;1.83;;
53519;SDS011;39397;53.204;5.778;2023-02-28T02:55:38;5.60;;;1.90;;
53519;SDS011;39397;53.204;5.778;2023-02-28T02:58:09;7.05;;;2.03;;
53519;SDS011;39397;53.204;5.778;2023-02-28T03:00:42;9.60;;;1.92;;
53519;SDS011;39397;53.204;5.778;2023-02-28T03:03:12;12.13;;;2.30;;
53519;SDS011;39397;53.204;5.778;2023-02-28T03:05:49;9.13;;;2.20;;
53519;SDS011;39397;53.204;5.778;2023-02-28T03:08:16;7.95;;;2.22;;
53519;SDS011;39397;53.204;5.778;2023-02-28T03:10:46;10.40;;;2.95;;
53519;SDS011;39397;53.204;5.778;2023-02-28T03:13:19;10.25;;;1.95;;
53519;SDS011;39397;53.204;5.778;2023-02-28T03:24:10;8.07;;;1.92;;
53519;SDS011;39397;53.204;5.778;2023-02-28T03:26:45;13.10;;;2.03;;
53519;SDS011;39397;53.204;5.778;2023-02-28T03:29:37;14.35;;;2.10;;
53519;SDS011;39397;53.204;5.778;2023-02-28T03:32:08;7.22;;;1.98;;
53519;SDS011;39397;53.204;5.778;2023-02-28T03:34:48;4.95;;;1.80;;
53519;SDS011;39397;53.204;5.778;2023-02-28T03:37:22;7.28;;;2.17;;
53519;SDS011;39397;53.204;5.778;2023-02-28T03:39:53;7.82;;;2.10;;
53519;SDS011;39397;53.204;5.778;2023-02-28T03:42:27;7.35;;;1.95;;
53519;SDS011;39397;53.204;5.778;2023-02-28T03:44:58;6.60;;;1.77;;
53519;SDS011;39397;53.204;5.778;2023-02-28T03:47:35;5.97;;;1.60;;
53519;SDS011;39397;53.204;5.778;2023-02-28T03:50:08;6.75;;;1.80;;
53519;SDS011;39397;53.204;5.778;2023-02-28T03:52:42;8.05;;;1.73;;
53519;SDS011;39397;53.204;5.778;2023-02-28T03:55:15;5.72;;;1.80;;
53519;SDS011;39397;53.204;5.778;2023-02-28T04:00:43;7.78;;;1.63;;
53519;SDS011;39397;53.204;5.778;2023-02-28T04:03:18;7.63;;;1.75;;
53519;SDS011;39397;53.204;5.778;2023-02-28T04:05:45;10.10;;;1.90;;
53519;SDS011;39397;53.204;5.778;2023-02-28T04:10:45;7.10;;;1.80;;
53519;SDS011;39397;53.204;5.778;2023-02-28T04:13:26;10.85;;;1.80;;
53519;SDS011;39397;53.204;5.778;2023-02-28T04:15:52;11.77;;;1.92;;
53519;SDS011;39397;53.204;5.778;2023-02-28T04:18:17;11.10;;;1.60;;
53519;SDS011;39397;53.204;5.778;2023-02-28T04:20:43;15.15;;;2.80;;
53519;SDS011;39397;53.204;5.778;2023-02-28T04:23:09;6.47;;;2.03;;
53519;SDS011;39397;53.204;5.778;2023-02-28T04:25:34;9.07;;;2.08;;
53519;SDS011;39397;53.204;5.778;2023-02-28T04:28:00;8.88;;;2.10;;
53519;SDS011;39397;53.204;5.778;2023-02-28T04:30:26;10.35;;;1.67;;
53519;SDS011;39397;53.204;5.778;2023-02-28T04:32:51;9.63;;;1.90;;
53519;SDS011;39397;53.204;5.778;2023-02-28T04:35:17;9.63;;;1.90;;
53519;SDS011;39397;53.204;5.778;2023-02-28T04:37:43;8.85;;;1.55;;
53519;SDS011;39397;53.204;5.778;2023-02-28T04:40:08;6.20;;;1.42;;
53519;SDS011;39397;53.204;5.778;2023-02-28T04:42:34;10.02;;;2.13;;
53519;SDS011;39397;53.204;5.778;2023-02-28T04:45:04;10.77;;;2.10;;
53519;SDS011;39397;53.204;5.778;2023-02-28T04:47:30;6.05;;;1.40;;
53519;SDS011;39397;53.204;5.778;2023-02-28T04:49:56;7.18;;;1.50;;
53519;SDS011;39397;53.204;5.778;2023-02-28T04:52:22;4.25;;;1.20;;
53519;SDS011;39397;53.204;5.778;2023-02-28T04:54:47;6.00;;;2.15;;
53519;SDS011;39397;53.204;5.778;2023-02-28T04:57:13;8.57;;;1.70;;
53519;SDS011;39397;53.204;5.778;2023-02-28T04:59:39;8.55;;;1.48;;
53519;SDS011;39397;53.204;5.778;2023-02-28T05:02:04;8.48;;;1.50;;
53519;SDS011;39397;53.204;5.778;2023-02-28T05:04:32;6.72;;;1.60;;
53519;SDS011;39397;53.204;5.778;2023-02-28T05:06:59;6.43;;;1.40;;
53519;SDS011;39397;53.204;5.778;2023-02-28T05:09:26;7.00;;;1.67;;
53519;SDS011;39397;53.204;5.778;2023-02-28T05:11:53;10.25;;;2.35;;
53519;SDS011;39397;53.204;5.778;2023-02-28T05:14:19;8.27;;;1.90;;
53519;SDS011;39397;53.204;5.778;2023-02-28T05:16:45;9.27;;;1.60;;
53519;SDS011;39397;53.204;5.778;2023-02-28T05:19:10;6.97;;;1.80;;
53519;SDS011;39397;53.204;5.778;2023-02-28T05:21:38;11.02;;;2.40;;
53519;SDS011;39397;53.204;5.778;2023-02-28T05:24:07;7.35;;;1.98;;
53519;SDS011;39397;53.204;5.778;2023-02-28T05:26:39;9.68;;;1.55;;
53519;SDS011;39397;53.204;5.778;2023-02-28T05:29:06;8.10;;;1.67;;
53519;SDS011;39397;53.204;5.778;2023-02-28T05:31:32;11.02;;;1.50;;
53519;SDS011;39397;53.204;5.778;2023-02-28T05:33:58;7.15;;;1.58;;
53519;SDS011;39397;53.204;5.778;2023-02-28T05:36:24;11.13;;;1.70;;
53519;SDS011;39397;53.204;5.778;2023-02-28T05:38:50;13.45;;;2.30;;
53519;SDS011;39397;53.204;5.778;2023-02-28T05:41:16;4.68;;;1.52;;
53519;SDS011;39397;53.204;5.778;2023-02-28T05:43:44;6.70;;;1.65;;
53519;SDS011;39397;53.204;5.778;2023-02-28T05:46:10;6.72;;;1.42;;
53519;SDS011;39397;53.204;5.778;2023-02-28T05:48:37;9.65;;;1.60;;
53519;SDS011;39397;53.204;5.778;2023-02-28T05:51:04;7.68;;;1.33;;
53519;SDS011;39397;53.204;5.778;2023-02-28T05:53:31;7.93;;;1.65;;
53519;SDS011;39397;53.204;5.778;2023-02-28T05:55:57;11.52;;;1.88;;
53519;SDS011;39397;53.204;5.778;2023-02-28T05:58:24;8.05;;;1.73;;
53519;SDS011;39397;53.204;5.778;2023-02-28T06:00:59;9.05;;;1.67;;
53519;SDS011;39397;53.204;5.778;2023-02-28T06:03:26;11.88;;;1.95;;
53519;SDS011;39397;53.204;5.778;2023-02-28T06:05:52;10.13;;;1.80;;
53519;SDS011;39397;53.204;5.778;2023-02-28T06:08:18;7.47;;;1.42;;
53519;SDS011;39397;53.204;5.778;2023-02-28T06:10:44;7.97;;;1.55;;
53519;SDS011;39397;53.204;5.778;2023-02-28T06:13:10;9.93;;;2.00;;
53519;SDS011;39397;53.204;5.778;2023-02-28T06:15:36;8.57;;;2.10;;
53519;SDS011;39397;53.204;5.778;2023-02-28T06:18:02;11.43;;;1.55;;
53519;SDS011;39397;53.204;5.778;2023-02-28T06:20:28;7.63;;;1.80;;
53519;SDS011;39397;53.204;5.778;2023-02-28T06:22:55;7.63;;;1.35;;
53519;SDS011;39397;53.204;5.778;2023-02-28T06:25:23;12.15;;;2.03;;
53519;SDS011;39397;53.204;5.778;2023-02-28T06:27:50;7.43;;;1.83;;
53519;SDS011;39397;53.204;5.778;2023-02-28T06:30:15;6.80;;;2.90;;
53519;SDS011;39397;53.204;5.778;2023-02-28T06:32:41;7.57;;;3.47;;
53519;SDS011;39397;53.204;5.778;2023-02-28T06:35:07;8.98;;;3.67;;
53519;SDS011;39397;53.204;5.778;2023-02-28T06:37:33;7.40;;;4.18;;
53519;SDS011;39397;53.204;5.778;2023-02-28T06:39:58;8.07;;;4.10;;
53519;SDS011;39397;53.204;5.778;2023-02-28T06:42:24;7.03;;;4.07;;
53519;SDS011;39397;53.204;5.778;2023-02-28T06:44:53;8.02;;;4.20;;
53519;SDS011;39397;53.204;5.778;2023-02-28T06:47:20;7.05;;;4.00;;
53519;SDS011;39397;53.204;5.778;2023-02-28T06:49:46;8.23;;;4.00;;
53519;SDS011;39397;53.204;5.778;2023-02-28T06:52:12;7.25;;;4.32;;
53519;SDS011;39397;53.204;5.778;2023-02-28T06:54:37;9.45;;;4.38;;
53519;SDS011;39397;53.204;5.778;2023-02-28T06:57:03;6.40;;;4.07;;
53519;SDS011;39397;53.204;5.778;2023-02-28T06:59:29;7.72;;;4.40;;
53519;SDS011;39397;53.204;5.778;2023-02-28T07:01:55;5.65;;;4.00;;
53519;SDS011;39397;53.204;5.778;2023-02-28T07:04:21;7.15;;;4.03;;
53519;SDS011;39397;53.204;5.778;2023-02-28T07:06:47;6.95;;;4.38;;
53519;SDS011;39397;53.204;5.778;2023-02-28T07:09:14;7.82;;;4.70;;
53519;SDS011;39397;53.204;5.778;2023-02-28T07:11:40;8.98;;;4.90;;
53519;SDS011;39397;53.204;5.778;2023-02-28T07:14:07;6.93;;;4.82;;
53519;SDS011;39397;53.204;5.778;2023-02-28T07:16:33;6.97;;;4.95;;
53519;SDS011;39397;53.204;5.778;2023-02-28T07:18:58;7.05;;;4.70;;
53519;SDS011;39397;53.204;5.778;2023-02-28T07:21:24;7.78;;;5.20;;
53519;SDS011;39397;53.204;5.778;2023-02-28T07:23:50;9.35;;;5.05;;
53519;SDS011;39397;53.204;5.778;2023-02-28T07:26:17;8.88;;;4.88;;
53519;SDS011;39397;53.204;5.778;2023-02-28T07:28:44;8.70;;;6.93;;
53519;SDS011;39397;53.204;5.778;2023-02-28T07:31:12;9.55;;;6.68;;
53519;SDS011;39397;53.204;5.778;2023-02-28T07:33:39;9.80;;;7.43;;
53519;SDS011;39397;53.204;5.778;2023-02-28T07:36:11;11.00;;;7.20;;
53519;SDS011;39397;53.204;5.778;2023-02-28T07:38:40;9.50;;;7.35;;
53519;SDS011;39397;53.204;5.778;2023-02-28T07:41:07;9.50;;;6.82;;
53519;SDS011;39397;53.204;5.778;2023-02-28T07:43:33;11.35;;;7.85;;
53519;SDS011;39397;53.204;5.778;2023-02-28T07:46:07;11.23;;;8.52;;
53519;SDS011;39397;53.204;5.778;2023-02-28T07:48:34;12.20;;;9.02;;
53519;SDS011;39397;53.204;5.778;2023-02-28T07:51:00;11.57;;;8.52;;
53519;SDS011;39397;53.204;5.778;2023-02-28T07:53:26;12.82;;;8.32;;
53519;SDS011;39397;53.204;5.778;2023-02-28T07:55:59;13.98;;;9.35;;
53519;SDS011;39397;53.204;5.778;2023-02-28T07:58:26;12.73;;;8.40;;
53519;SDS011;39397;53.204;5.778;2023-02-28T08:00:53;13.13;;;8.60;;
53519;SDS011;39397;53.204;5.778;2023-02-28T08:03:20;13.15;;;8.77;;
53519;SDS011;39397;53.204;5.778;2023-02-28T08:05:47;14.15;;;8.68;;
53519;SDS011;39397;53.204;5.778;2023-02-28T08:08:13;11.43;;;8.63;;
53519;SDS011;39397;53.204;5.778;2023-02-28T08:10:40;13.77;;;9.82;;
53519;SDS011;39397;53.204;5.778;2023-02-28T08:13:06;11.82;;;8.57;;
53519;SDS011;39397;53.204;5.778;2023-02-28T08:15:32;12.40;;;9.73;;
53519;SDS011;39397;53.204;5.778;2023-02-28T08:17:58;12.45;;;9.40;;
53519;SDS011;39397;53.204;5.778;2023-02-28T08:20:24;12.75;;;8.88;;
53519;SDS011;39397;53.204;5.778;2023-02-28T08:22:51;15.20;;;10.02;;
53519;SDS011;39397;53.204;5.778;2023-02-28T08:25:16;12.55;;;9.65;;
53519;SDS011;39397;53.204;5.778;2023-02-28T08:27:42;15.90;;;9.82;;
53519;SDS011;39397;53.204;5.778;2023-02-28T08:30:12;15.18;;;11.27;;
53519;SDS011;39397;53.204;5.778;2023-02-28T08:32:38;15.73;;;10.50;;
53519;SDS011;39397;53.204;5.778;2023-02-28T08:35:04;14.55;;;10.50;;
53519;SDS011;39397;53.204;5.778;2023-02-28T08:37:30;13.82;;;10.40;;
53519;SDS011;39397;53.204;5.778;2023-02-28T08:39:56;14.35;;;10.15;;
53519;SDS011;39397;53.204;5.778;2023-02-28T08:42:22;15.68;;;11.13;;
53519;SDS011;39397;53.204;5.778;2023-02-28T08:44:50;13.38;;;9.73;;
53519;SDS011;39397;53.204;5.778;2023-02-28T08:47:16;15.55;;;11.25;;
53519;SDS011;39397;53.204;5.778;2023-02-28T08:49:42;12.18;;;10.18;;
53519;SDS011;39397;53.204;5.778;2023-02-28T08:52:07;14.48;;;11.30;;
53519;SDS011;39397;53.204;5.778;2023-02-28T08:54:33;17.85;;;10.93;;
53519;SDS011;39397;53.204;5.778;2023-02-28T08:57:00;13.13;;;10.07;;
53519;SDS011;39397;53.204;5.778;2023-02-28T08:59:27;12.88;;;10.00;;
53519;SDS011;39397;53.204;5.778;2023-02-28T09:01:53;15.00;;;10.82;;
53519;SDS011;39397;53.204;5.778;2023-02-28T09:04:18;12.80;;;10.07;;
53519;SDS011;39397;53.204;5.778;2023-02-28T09:06:44;12.18;;;9.38;;
53519;SDS011;39397;53.204;5.778;2023-02-28T09:09:10;13.32;;;9.57;;
53519;SDS011;39397;53.204;5.778;2023-02-28T09:11:36;12.90;;;10.15;;
53519;SDS011;39397;53.204;5.778;2023-02-28T09:14:02;12.27;;;9.90;;
53519;SDS011;39397;53.204;5.778;2023-02-28T09:16:28;13.27;;;10.35;;
53519;SDS011;39397;53.204;5.778;2023-02-28T09:18:56;12.93;;;9.25;;
53519;SDS011;39397;53.204;5.778;2023-02-28T09:21:22;12.55;;;9.98;;
53519;SDS011;39397;53.204;5.778;2023-02-28T09:23:48;11.82;;;9.07;;
53519;SDS011;39397;53.204;5.778;2023-02-28T09:26:16;10.90;;;9.02;;
53519;SDS011;39397;53.204;5.778;2023-02-28T09:28:43;11.50;;;9.32;;
53519;SDS011;39397;53.204;5.778;2023-02-28T09:31:13;10.65;;;8.65;;
53519;SDS011;39397;53.204;5.778;2023-02-28T09:33:47;10.45;;;8.75;;
53519;SDS011;39397;53.204;5.778;2023-02-28T09:36:14;11.63;;;8.70;;
53519;SDS011;39397;53.204;5.778;2023-02-28T09:38:40;10.65;;;8.32;;
53519;SDS011;39397;53.204;5.778;2023-02-28T09:41:22;10.52;;;8.35;;
53519;SDS011;39397;53.204;5.778;2023-02-28T09:43:54;10.52;;;8.63;;
53519;SDS011;39397;53.204;5.778;2023-02-28T09:49:00;10.07;;;8.60;;
53519;SDS011;39397;53.204;5.778;2023-02-28T09:54:13;10.98;;;8.63;;
53519;SDS011;39397;53.204;5.778;2023-02-28T09:56:51;9.73;;;8.00;;
53519;SDS011;39397;53.204;5.778;2023-02-28T09:59:42;11.27;;;8.52;;
53519;SDS011;39397;53.204;5.778;2023-02-28T10:05:48;10.23;;;8.70;;
53519;SDS011;39397;53.204;5.778;2023-02-28T10:08:30;14.88;;;8.15;;
53519;SDS011;39397;53.204;5.778;2023-02-28T10:11:01;10.50;;;8.02;;
53519;SDS011;39397;53.204;5.778;2023-02-28T10:13:35;9.00;;;6.97;;
53519;SDS011;39397;53.204;5.778;2023-02-28T10:16:08;12.90;;;7.25;;
53519;SDS011;39397;53.204;5.778;2023-02-28T10:18:43;10.02;;;7.60;;
53519;SDS011;39397;53.204;5.778;2023-02-28T10:24:05;9.88;;;6.50;;
53519;SDS011;39397;53.204;5.778;2023-02-28T10:26:44;10.00;;;6.00;;
53519;SDS011;39397;53.204;5.778;2023-02-28T10:29:12;10.20;;;6.38;;
53519;SDS011;39397;53.204;5.778;2023-02-28T10:31:38;9.88;;;5.80;;
53519;SDS011;39397;53.204;5.778;2023-02-28T10:34:04;9.13;;;6.38;;
53519;SDS011;39397;53.204;5.778;2023-02-28T10:36:31;10.45;;;5.93;;
53519;SDS011;39397;53.204;5.778;2023-02-28T10:38:57;9.57;;;6.00;;
53519;SDS011;39397;53.204;5.778;2023-02-28T10:41:31;8.02;;;5.40;;
53519;SDS011;39397;53.204;5.778;2023-02-28T10:44:14;8.05;;;5.57;;
53519;SDS011;39397;53.204;5.778;2023-02-28T10:49:20;9.05;;;5.13;;
53519;SDS011;39397;53.204;5.778;2023-02-28T10:51:48;7.70;;;4.85;;
53519;SDS011;39397;53.204;5.778;2023-02-28T10:57:05;8.82;;;4.97;;
53519;SDS011;39397;53.204;5.778;2023-02-28T10:59:34;9.73;;;5.03;;
53519;SDS011;39397;53.204;5.778;2023-02-28T11:02:00;7.97;;;4.03;;
53519;SDS011;39397;53.204;5.778;2023-02-28T11:07:05;8.85;;;5.32;;
53519;SDS011;39397;53.204;5.778;2023-02-28T11:09:44;9.25;;;4.97;;
53519;SDS011;39397;53.204;5.778;2023-02-28T11:12:21;6.05;;;3.92;;
53519;SDS011;39397;53.204;5.778;2023-02-28T11:17:52;7.82;;;3.85;;
53519;SDS011;39397;53.204;5.778;2023-02-28T11:20:28;6.95;;;2.92;;
53519;SDS011;39397;53.204;5.778;2023-02-28T11:22:56;6.53;;;3.05;;
53519;SDS011;39397;53.204;5.778;2023-02-28T11:25:24;7.15;;;3.70;;
53519;SDS011;39397;53.204;5.778;2023-02-28T11:27:53;5.90;;;3.40;;
53519;SDS011;39397;53.204;5.778;2023-02-28T11:30:29;6.57;;;3.30;;
53519;SDS011;39397;53.204;5.778;2023-02-28T11:33:18;7.32;;;3.63;;
53519;SDS011;39397;53.204;5.778;2023-02-28T11:36:41;7.30;;;3.97;;
53519;SDS011;39397;53.204;5.778;2023-02-28T11:38:42;8.68;;;2.92;;
53519;SDS011;39397;53.204;5.778;2023-02-28T11:41:30;7.50;;;3.67;;
53519;SDS011;39397;53.204;5.778;2023-02-28T11:46:42;5.72;;;3.05;;
53519;SDS011;39397;53.204;5.778;2023-02-28T12:05:52;6.43;;;2.47;;
53519;SDS011;39397;53.204;5.778;2023-02-28T12:08:49;4.45;;;2.50;;
53519;SDS011;39397;53.204;5.778;2023-02-28T12:11:42;5.45;;;2.55;;
53519;SDS011;39397;53.204;5.778;2023-02-28T12:15:06;4.43;;;2.28;;
53519;SDS011;39397;53.204;5.778;2023-02-28T12:20:24;5.28;;;2.58;;
53519;SDS011;39397;53.204;5.778;2023-02-28T12:28:24;5.47;;;2.58;;
53519;SDS011;39397;53.204;5.778;2023-02-28T12:30:55;5.38;;;2.45;;
53519;SDS011;39397;53.204;5.778;2023-02-28T12:33:26;6.03;;;2.50;;
53519;SDS011;39397;53.204;5.778;2023-02-28T12:35:59;5.03;;;2.37;;
53519;SDS011;39397;53.204;5.778;2023-02-28T12:41:02;5.90;;;2.92;;
53519;SDS011;39397;53.204;5.778;2023-02-28T12:43:34;6.13;;;2.78;;
53519;SDS011;39397;53.204;5.778;2023-02-28T12:46:17;5.05;;;2.60;;
53519;SDS011;39397;53.204;5.778;2023-02-28T12:48:49;5.95;;;3.15;;
53519;SDS011;39397;53.204;5.778;2023-02-28T12:51:18;5.13;;;2.45;;
53519;SDS011;39397;53.204;5.778;2023-02-28T13:10:19;5.97;;;2.70;;
53519;SDS011;39397;53.204;5.778;2023-02-28T13:12:52;4.78;;;2.63;;
53519;SDS011;39397;53.204;5.778;2023-02-28T13:15:24;5.63;;;3.15;;
53519;SDS011;39397;53.204;5.778;2023-02-28T13:17:54;5.60;;;3.05;;
53519;SDS011;39397;53.204;5.778;2023-02-28T13:20:23;5.75;;;2.83;;
53519;SDS011;39397;53.204;5.778;2023-02-28T13:22:58;6.35;;;2.90;;
53519;SDS011;39397;53.204;5.778;2023-02-28T13:28:11;6.05;;;2.65;;
53519;SDS011;39397;53.204;5.778;2023-02-28T13:30:59;5.38;;;2.58;;
53519;SDS011;39397;53.204;5.778;2023-02-28T13:33:33;5.68;;;3.28;;
53519;SDS011;39397;53.204;5.778;2023-02-28T13:38:47;6.03;;;2.80;;
53519;SDS011;39397;53.204;5.778;2023-02-28T13:52:11;8.27;;;3.58;;
53519;SDS011;39397;53.204;5.778;2023-02-28T13:57:37;6.68;;;3.35;;
53519;SDS011;39397;53.204;5.778;2023-02-28T14:02:58;6.22;;;3.20;;
53519;SDS011;39397;53.204;5.778;2023-02-28T14:05:37;6.28;;;3.25;;
53519;SDS011;39397;53.204;5.778;2023-02-28T14:08:17;5.55;;;3.53;;
53519;SDS011;39397;53.204;5.778;2023-02-28T14:10:47;6.75;;;3.42;;
53519;SDS011;39397;53.204;5.778;2023-02-28T14:16:16;6.18;;;3.40;;
53519;SDS011;39397;53.204;5.778;2023-02-28T14:18:49;6.00;;;3.38;;
53519;SDS011;39397;53.204;5.778;2023-02-28T14:21:24;5.30;;;3.60;;
53519;SDS011;39397;53.204;5.778;2023-02-28T14:31:49;5.65;;;3.53;;
53519;SDS011;39397;53.204;5.778;2023-02-28T14:34:43;6.22;;;3.70;;
53519;SDS011;39397;53.204;5.778;2023-02-28T14:37:33;6.07;;;3.90;;
53519;SDS011;39397;53.204;5.778;2023-02-28T14:40:02;5.63;;;3.40;;
53519;SDS011;39397;53.204;5.778;2023-02-28T14:42:34;6.05;;;3.08;;
53519;SDS011;39397;53.204;5.778;2023-02-28T14:45:02;6.10;;;3.35;;
53519;SDS011;39397;53.204;5.778;2023-02-28T14:47:32;5.97;;;3.13;;
53519;SDS011;39397;53.204;5.778;2023-02-28T14:50:00;7.18;;;3.33;;
53519;SDS011;39397;53.204;5.778;2023-02-28T14:52:29;5.85;;;3.50;;
53519;SDS011;39397;53.204;5.778;2023-02-28T14:55:03;6.97;;;3.90;;
53519;SDS011;39397;53.204;5.778;2023-02-28T14:57:39;6.97;;;4.15;;
53519;SDS011;39397;53.204;5.778;2023-02-28T15:00:16;5.25;;;3.28;;
53519;SDS011;39397;53.204;5.778;2023-02-28T15:02:54;6.68;;;4.43;;
53519;SDS011;39397;53.204;5.778;2023-02-28T15:07:47;5.80;;;4.03;;
53519;SDS011;39397;53.204;5.778;2023-02-28T15:12:59;5.57;;;3.50;;
53519;SDS011;39397;53.204;5.778;2023-02-28T15:21:02;5.70;;;3.20;;
53519;SDS011;39397;53.204;5.778;2023-02-28T15:23:31;6.32;;;3.30;;
53519;SDS011;39397;53.204;5.778;2023-02-28T15:25:57;5.65;;;3.13;;
53519;SDS011;39397;53.204;5.778;2023-02-28T15:28:24;5.93;;;3.28;;
53519;SDS011;39397;53.204;5.778;2023-02-28T15:30:54;5.68;;;3.10;;
53519;SDS011;39397;53.204;5.778;2023-02-28T15:33:33;6.82;;;3.13;;
53519;SDS011;39397;53.204;5.778;2023-02-28T15:36:07;5.55;;;3.15;;
53519;SDS011;39397;53.204;5.778;2023-02-28T15:38:39;6.15;;;3.35;;
53519;SDS011;39397;53.204;5.778;2023-02-28T15:41:28;5.90;;;3.70;;
53519;SDS011;39397;53.204;5.778;2023-02-28T15:44:15;7.57;;;3.92;;
53519;SDS011;39397;53.204;5.778;2023-02-28T15:47:14;8.35;;;3.67;;
53519;SDS011;39397;53.204;5.778;2023-02-28T15:52:15;6.95;;;4.60;;
53519;SDS011;39397;53.204;5.778;2023-02-28T15:54:44;7.60;;;4.95;;
53519;SDS011;39397;53.204;5.778;2023-02-28T15:57:15;8.52;;;5.43;;
53519;SDS011;39397;53.204;5.778;2023-02-28T16:00:05;7.78;;;4.55;;
53519;SDS011;39397;53.204;5.778;2023-02-28T16:02:37;12.50;;;6.43;;
53519;SDS011;39397;53.204;5.778;2023-02-28T16:07:36;7.95;;;6.05;;
53519;SDS011;39397;53.204;5.778;2023-02-28T16:10:07;8.82;;;6.28;;
53519;SDS011;39397;53.204;5.778;2023-02-28T16:12:37;7.40;;;5.03;;
53519;SDS011;39397;53.204;5.778;2023-02-28T16:15:08;7.63;;;5.32;;
53519;SDS011;39397;53.204;5.778;2023-02-28T16:17:55;8.40;;;5.07;;
53519;SDS011;39397;53.204;5.778;2023-02-28T16:20:24;8.38;;;5.68;;
53519;SDS011;39397;53.204;5.778;2023-02-28T16:22:51;8.00;;;5.28;;
53519;SDS011;39397;53.204;5.778;2023-02-28T16:25:18;8.23;;;4.93;;
53519;SDS011;39397;53.204;5.778;2023-02-28T16:27:48;8.15;;;5.57;;
53519;SDS011;39397;53.204;5.778;2023-02-28T16:30:18;8.30;;;5.55;;
53519;SDS011;39397;53.204;5.778;2023-02-28T16:32:49;9.18;;;5.60;;
53519;SDS011;39397;53.204;5.778;2023-02-28T16:35:16;8.70;;;5.65;;
53519;SDS011;39397;53.204;5.778;2023-02-28T16:37:43;10.65;;;5.82;;
53519;SDS011;39397;53.204;5.778;2023-02-28T16:40:13;11.40;;;6.70;;
53519;SDS011;39397;53.204;5.778;2023-02-28T16:42:40;9.43;;;6.10;;
53519;SDS011;39397;53.204;5.778;2023-02-28T16:45:10;9.88;;;6.40;;
53519;SDS011;39397;53.204;5.778;2023-02-28T16:47:48;12.13;;;6.57;;
53519;SDS011;39397;53.204;5.778;2023-02-28T16:50:15;9.90;;;6.25;;
53519;SDS011;39397;53.204;5.778;2023-02-28T16:52:46;12.93;;;7.93;;
53519;SDS011;39397;53.204;5.778;2023-02-28T16:55:13;11.98;;;7.15;;
53519;SDS011;39397;53.204;5.778;2023-02-28T16:57:39;13.75;;;7.78;;
53519;SDS011;39397;53.204;5.778;2023-02-28T17:00:06;13.05;;;8.45;;
53519;SDS011;39397;53.204;5.778;2023-02-28T17:02:33;12.25;;;7.90;;
53519;SDS011;39397;53.204;5.778;2023-02-28T17:04:59;13.25;;;7.45;;
53519;SDS011;39397;53.204;5.778;2023-02-28T17:07:25;11.20;;;6.93;;
53519;SDS011;39397;53.204;5.778;2023-02-28T17:09:51;12.23;;;8.13;;
53519;SDS011;39397;53.204;5.778;2023-02-28T17:12:17;12.90;;;6.90;;
53519;SDS011;39397;53.204;5.778;2023-02-28T17:14:42;10.30;;;6.75;;
53519;SDS011;39397;53.204;5.778;2023-02-28T17:17:09;11.45;;;7.72;;
53519;SDS011;39397;53.204;5.778;2023-02-28T17:19:45;13.25;;;7.97;;
53519;SDS011;39397;53.204;5.778;2023-02-28T17:22:11;13.55;;;7.85;;
53519;SDS011;39397;53.204;5.778;2023-02-28T17:24:36;14.02;;;7.90;;
53519;SDS011;39397;53.204;5.778;2023-02-28T17:27:02;11.05;;;7.53;;
53519;SDS011;39397;53.204;5.778;2023-02-28T17:29:28;18.73;;;8.13;;
53519;SDS011;39397;53.204;5.778;2023-02-28T17:31:54;11.45;;;7.95;;